Terminal Aerodrome Forecast
Issued by NWS Missoula, MT

Home | Current Version | Previous Version | Text Only | Print | Product List | Glossary On
Versions: 1 2 3 4 5 6 7 8 9 10 11 12 13 14
639
FTUS45 KMSO 240534
TAFMSO
TAF
KMSO 240534Z 2406/2506 VRB03KT P6SM VCSH BKN040 OVC050
     FM241800 30008KT P6SM VCSH SCT050=

USA.gov is the U.S. government's official web portal to all federal, state and local government web resources and services.